createdAt,value
2023-02-08T00:00:50.835Z,-2.53
2023-02-08T00:01:47.598Z,-2.31
2023-02-08T00:02:44.428Z,-2.37
2023-02-08T00:03:41.412Z,-2.53
2023-02-08T00:04:38.191Z,-2.30
2023-02-08T00:05:34.989Z,-3.48
2023-02-08T00:06:31.994Z,-4.05
2023-02-08T00:07:28.989Z,-2.88
2023-02-08T00:08:25.820Z,-4.71
2023-02-08T00:09:22.792Z,-2.40
2023-02-08T00:10:19.675Z,-2.54
2023-02-08T00:11:16.462Z,-2.43
2023-02-08T00:12:13.304Z,-2.50
2023-02-08T00:13:10.119Z,-2.43
2023-02-08T00:14:07.108Z,-3.99
2023-02-08T00:15:05.551Z,-2.33
2023-02-08T00:16:02.529Z,-2.06
2023-02-08T00:16:59.286Z,-2.32
2023-02-08T00:17:56.128Z,-2.28
2023-02-08T00:18:52.998Z,-4.64
2023-02-08T00:19:49.821Z,-2.58
2023-02-08T00:20:47.186Z,-2.88
2023-02-08T00:21:43.922Z,-2.59
2023-02-08T00:22:41.054Z,-2.60
2023-02-08T00:23:37.993Z,-2.77
2023-02-08T00:24:34.930Z,-2.43
2023-02-08T00:25:31.866Z,-1.99
2023-02-08T00:26:28.653Z,-1.86
2023-02-08T00:27:25.408Z,-3.87
2023-02-08T00:28:22.190Z,-2.25
2023-02-08T00:29:21.320Z,-3.33
2023-02-08T00:30:18.127Z,-2.45
2023-02-08T00:31:15.321Z,-4.70
2023-02-08T00:32:12.168Z,-2.68
2023-02-08T00:33:09.505Z,-2.91
2023-02-08T00:34:06.359Z,-2.44
2023-02-08T00:35:03.102Z,-2.40
2023-02-08T00:36:01.582Z,-2.71
2023-02-08T00:36:58.499Z,-2.75
2023-02-08T00:37:55.285Z,-2.71
2023-02-08T00:38:52.173Z,-2.74
2023-02-08T00:39:49.019Z,-3.24
2023-02-08T00:40:45.753Z,-2.57
2023-02-08T00:41:42.480Z,-4.02
2023-02-08T00:42:39.275Z,-2.23
2023-02-08T00:43:36.162Z,-1.86
2023-02-08T00:44:33.045Z,-4.77
2023-02-08T00:45:30.723Z,-2.55
2023-02-08T00:46:27.656Z,-2.67
2023-02-08T00:47:25.337Z,-1.91
2023-02-08T00:48:22.193Z,-2.25
2023-02-08T00:49:18.981Z,-2.16
2023-02-08T00:50:15.797Z,-2.44
2023-02-08T00:51:14.286Z,-2.33
2023-02-08T00:52:11.082Z,-3.32
2023-02-08T00:53:07.904Z,-3.16
2023-02-08T00:54:04.788Z,-3.18
2023-02-08T00:55:01.539Z,-2.62
2023-02-08T00:55:58.492Z,-3.21
2023-02-08T00:56:55.237Z,-2.74
2023-02-08T00:57:52.041Z,-2.26
2023-02-08T00:58:48.815Z,-2.28
2023-02-08T00:59:45.666Z,-2.26
2023-02-08T01:00:44.944Z,-3.80
2023-02-08T01:01:42.782Z,-5.72
2023-02-08T01:02:39.671Z,-2.38
2023-02-08T01:03:39.399Z,-2.70
2023-02-08T01:04:36.496Z,-2.30
2023-02-08T01:05:33.414Z,-2.47
2023-02-08T01:06:30.657Z,-2.34
2023-02-08T01:07:27.454Z,-2.47
2023-02-08T01:08:24.306Z,-2.12
2023-02-08T01:09:21.064Z,-1.84
2023-02-08T01:10:17.900Z,-1.99
2023-02-08T01:11:22.468Z,-2.16
2023-02-08T01:12:19.333Z,-2.49
2023-02-08T01:13:16.075Z,-2.64
2023-02-08T01:14:12.902Z,-3.38
2023-02-08T01:15:09.725Z,-2.01
2023-02-08T01:16:11.165Z,-2.15
2023-02-08T01:17:08.031Z,-2.21
2023-02-08T01:18:06.260Z,-3.35
2023-02-08T01:19:05.153Z,-2.09
2023-02-08T01:20:02.024Z,-3.05
2023-02-08T01:21:08.225Z,-2.24
2023-02-08T01:22:05.032Z,-2.36
2023-02-08T01:23:01.971Z,-2.70
2023-02-08T01:23:59.830Z,-3.25
2023-02-08T01:24:56.673Z,-3.20
2023-02-08T01:25:53.501Z,-2.73
2023-02-08T01:26:52.238Z,-2.28
2023-02-08T01:27:49.014Z,-2.54
2023-02-08T01:28:47.569Z,-2.54
2023-02-08T01:29:44.332Z,-2.24
2023-02-08T01:30:41.349Z,-3.59
2023-02-08T01:31:40.729Z,-3.24
2023-02-08T01:32:37.570Z,-1.90
2023-02-08T01:33:34.539Z,-2.13
2023-02-08T01:34:31.352Z,-2.28
2023-02-08T01:35:28.311Z,-2.39
2023-02-08T01:36:27.316Z,-1.76
2023-02-08T01:37:24.494Z,-2.46
2023-02-08T01:38:21.948Z,-2.37
2023-02-08T01:39:18.799Z,-2.23
2023-02-08T01:40:15.621Z,-2.54
2023-02-08T01:41:19.698Z,-2.42
2023-02-08T01:42:18.980Z,-2.46
2023-02-08T01:43:54.587Z,-2.14
2023-02-08T01:45:16.731Z,-2.37
2023-02-08T01:46:13.478Z,-2.53
2023-02-08T01:47:11.631Z,-3.60
2023-02-08T01:48:13.798Z,-2.31
2023-02-08T01:49:19.799Z,-2.11
2023-02-08T01:50:21.720Z,-2.27
2023-02-08T01:51:24.808Z,-1.92
2023-02-08T01:52:27.164Z,-6.75
2023-02-08T01:53:27.479Z,-2.21
2023-02-08T01:54:32.469Z,-2.24
2023-02-08T01:55:38.558Z,-2.84
2023-02-08T01:56:41.237Z,-3.69
2023-02-08T01:57:38.480Z,-2.62
2023-02-08T01:58:41.333Z,-1.94
2023-02-08T01:59:47.859Z,-2.18
2023-02-08T02:00:46.379Z,-2.11
2023-02-08T02:01:46.563Z,-2.62
2023-02-08T02:02:47.992Z,-3.96
2023-02-08T02:03:45.337Z,-2.82
2023-02-08T02:04:42.714Z,-2.38
2023-02-08T02:05:43.587Z,-2.38
2023-02-08T02:06:46.855Z,-2.88
2023-02-08T02:07:44.487Z,-3.31
2023-02-08T02:09:05.836Z,-2.74
2023-02-08T02:10:23.628Z,-2.31
2023-02-08T02:11:20.778Z,-2.77
2023-02-08T02:12:18.728Z,-2.47
2023-02-08T02:13:22.482Z,-3.09
2023-02-08T02:14:19.834Z,-2.43
2023-02-08T02:15:16.669Z,-2.35
2023-02-08T02:16:13.744Z,-2.80
2023-02-08T02:17:15.362Z,-2.40
2023-02-08T02:18:30.593Z,-3.75
2023-02-08T02:19:45.738Z,-2.41
2023-02-08T02:21:10.059Z,-2.53
2023-02-08T02:22:19.561Z,-2.29
2023-02-08T02:23:47.099Z,-2.13
2023-02-08T02:24:55.742Z,-2.27
2023-02-08T02:26:10.880Z,-2.51
2023-02-08T02:27:25.300Z,-2.15
2023-02-08T02:29:09.497Z,-2.61
2023-02-08T02:30:09.166Z,-2.69
2023-02-08T02:31:15.301Z,-2.63
2023-02-08T02:32:24.030Z,-2.19
2023-02-08T02:33:42.428Z,-2.09
2023-02-08T02:34:51.141Z,-2.28
2023-02-08T02:36:17.116Z,-2.12
2023-02-08T02:37:22.665Z,-2.35
2023-02-08T02:38:52.556Z,-2.46
2023-02-08T02:40:07.322Z,-2.35
2023-02-08T02:41:45.524Z,-2.41
2023-02-08T02:43:15.919Z,-2.51
2023-02-08T02:44:36.776Z,-3.06
2023-02-08T02:45:53.861Z,-2.17
2023-02-08T02:47:02.803Z,-2.54
2023-02-08T02:48:48.887Z,-2.50
2023-02-08T02:49:57.125Z,-2.92
2023-02-08T02:51:12.039Z,-2.16
2023-02-08T02:52:15.135Z,-3.87
2023-02-08T02:53:18.399Z,-3.33
2023-02-08T02:54:29.252Z,-2.06
2023-02-08T02:55:31.109Z,-3.61
2023-02-08T02:56:50.970Z,-2.00
2023-02-08T02:57:53.556Z,-2.24
2023-02-08T02:58:53.249Z,-2.23
2023-02-08T02:59:50.719Z,-3.02
2023-02-08T03:00:53.830Z,-5.11
2023-02-08T03:01:50.711Z,-2.54
2023-02-08T03:02:47.503Z,-3.28
2023-02-08T03:03:44.336Z,-2.25
2023-02-08T03:04:41.033Z,-2.45
2023-02-08T03:05:38.109Z,-2.29
2023-02-08T03:06:54.132Z,-3.29
2023-02-08T03:08:23.261Z,-2.25
2023-02-08T03:09:35.326Z,-2.42
2023-02-08T03:10:34.719Z,-2.60
2023-02-08T03:11:36.920Z,-3.07
2023-02-08T03:12:45.854Z,-2.77
2023-02-08T03:14:16.202Z,-2.94
2023-02-08T03:15:23.921Z,-2.32
2023-02-08T03:16:26.818Z,-2.59
2023-02-08T03:17:49.802Z,-2.41
2023-02-08T03:19:20.389Z,-2.50
2023-02-08T03:20:53.428Z,-2.58
2023-02-08T03:21:58.858Z,-2.46
2023-02-08T03:23:18.494Z,-2.26
2023-02-08T03:24:33.527Z,-2.58
2023-02-08T03:25:38.557Z,-2.59
2023-02-08T03:26:53.839Z,-2.75
2023-02-08T03:28:09.989Z,-1.93
2023-02-08T03:29:54.629Z,-1.95
2023-02-08T03:30:59.892Z,-3.11
2023-02-08T03:32:12.661Z,-2.45
2023-02-08T03:33:23.484Z,-2.71
2023-02-08T03:34:45.341Z,-3.00
2023-02-08T03:35:57.461Z,-2.60
2023-02-08T03:37:03.286Z,-3.15
2023-02-08T03:38:06.187Z,-3.69
2023-02-08T03:39:11.211Z,-2.34
2023-02-08T03:40:23.080Z,-3.74
2023-02-08T03:41:28.123Z,-2.97
2023-02-08T03:42:30.935Z,-2.67
2023-02-08T03:43:34.090Z,-3.38
2023-02-08T03:44:39.665Z,-2.86
2023-02-08T03:45:46.705Z,-2.56
2023-02-08T03:47:00.670Z,-2.06
2023-02-08T03:48:03.888Z,-1.73
2023-02-08T03:49:15.004Z,-3.03
2023-02-08T03:50:19.993Z,-2.69
2023-02-08T03:51:21.732Z,-3.23
2023-02-08T03:52:19.330Z,-3.36
2023-02-08T03:53:22.096Z,-4.00
2023-02-08T03:54:28.325Z,-2.98
2023-02-08T03:55:29.997Z,-4.55
2023-02-08T03:56:33.832Z,-3.56
2023-02-08T03:57:45.982Z,-3.64
2023-02-08T03:58:50.175Z,-3.26
2023-02-08T03:59:56.092Z,-3.92
2023-02-08T04:01:06.381Z,-3.59
2023-02-08T04:02:09.963Z,-3.16
2023-02-08T04:03:20.303Z,-2.94
2023-02-08T04:04:19.803Z,-3.88
2023-02-08T04:05:17.087Z,-2.60
2023-02-08T04:06:13.963Z,-2.65
2023-02-08T04:07:10.956Z,-2.93
2023-02-08T04:08:08.154Z,-3.17
2023-02-08T04:09:04.924Z,-4.39
2023-02-08T04:10:02.996Z,-3.12
2023-02-08T04:10:59.926Z,-3.92
2023-02-08T04:11:56.715Z,-3.43
2023-02-08T04:12:53.464Z,-3.64
2023-02-08T04:13:50.165Z,-2.96
2023-02-08T04:14:46.998Z,-2.99
2023-02-08T04:15:44.471Z,-2.59
2023-02-08T04:16:41.373Z,-2.89
2023-02-08T04:17:38.246Z,-3.67
2023-02-08T04:18:35.047Z,-3.02
2023-02-08T04:19:31.929Z,-3.55
2023-02-08T04:20:28.805Z,-3.32
2023-02-08T04:21:25.685Z,-4.19
2023-02-08T04:22:22.480Z,-2.82
2023-02-08T04:23:19.233Z,-3.24
2023-02-08T04:24:16.150Z,-3.99
2023-02-08T04:25:13.116Z,-3.75
2023-02-08T04:26:09.918Z,-2.76
2023-02-08T04:27:07.006Z,-2.76
2023-02-08T04:28:04.037Z,-2.91
2023-02-08T04:29:01.471Z,-2.71
2023-02-08T04:29:58.388Z,-4.65
2023-02-08T04:30:57.245Z,-4.24
2023-02-08T04:31:54.158Z,-3.37
2023-02-08T04:32:51.034Z,-3.09
2023-02-08T04:33:47.910Z,-3.42
2023-02-08T04:34:44.658Z,-3.64
2023-02-08T04:35:42.834Z,-4.75
2023-02-08T04:36:39.653Z,-3.56
2023-02-08T04:37:36.430Z,-3.57
2023-02-08T04:38:33.233Z,-3.66
2023-02-08T04:39:30.085Z,-3.39
2023-02-08T04:40:26.841Z,-3.57
2023-02-08T04:41:23.742Z,-3.20
2023-02-08T04:42:20.514Z,-2.65
2023-02-08T04:43:17.331Z,-2.06
2023-02-08T04:44:14.988Z,-2.61
2023-02-08T04:45:11.799Z,-1.98
2023-02-08T04:46:08.583Z,-2.52
2023-02-08T04:47:05.355Z,-1.90
2023-02-08T04:48:02.492Z,-2.46
2023-02-08T04:48:59.312Z,-2.35
2023-02-08T04:49:56.089Z,-2.13
2023-02-08T04:50:58.985Z,-1.96
2023-02-08T04:51:55.793Z,-3.24
2023-02-08T04:52:53.060Z,-2.53
2023-02-08T04:53:49.778Z,-3.28
2023-02-08T04:54:50.642Z,-2.31
2023-02-08T04:55:47.461Z,-2.35
2023-02-08T04:56:44.377Z,-2.28
2023-02-08T04:57:41.226Z,-2.21
2023-02-08T04:58:38.137Z,-2.37
2023-02-08T04:59:34.891Z,-2.26
2023-02-08T05:00:31.926Z,-2.31
2023-02-08T05:01:28.812Z,-2.89
2023-02-08T05:02:25.598Z,-3.44
2023-02-08T05:03:22.391Z,-3.62
2023-02-08T05:04:19.236Z,-3.91
2023-02-08T05:05:16.064Z,-3.69
2023-02-08T05:06:13.044Z,-3.88
2023-02-08T05:07:09.919Z,-5.00
2023-02-08T05:08:07.527Z,-5.36
2023-02-08T05:09:08.936Z,-4.02
2023-02-08T05:10:06.069Z,-4.07
2023-02-08T05:11:02.976Z,-3.62
2023-02-08T05:11:59.800Z,-2.75
2023-02-08T05:12:56.743Z,-2.20
2023-02-08T05:13:53.673Z,-1.98
2023-02-08T05:14:50.566Z,-1.98
2023-02-08T05:15:47.475Z,-1.90
2023-02-08T05:16:44.343Z,-2.65
2023-02-08T05:17:41.246Z,-3.29
2023-02-08T05:18:38.162Z,-1.91
2023-02-08T05:19:34.967Z,-2.21
2023-02-08T05:20:33.737Z,-2.28
2023-02-08T05:21:30.583Z,-3.77
2023-02-08T05:22:27.333Z,-3.45
2023-02-08T05:23:24.417Z,-3.59
2023-02-08T05:24:21.292Z,-4.05
2023-02-08T05:25:18.295Z,-3.81
2023-02-08T05:26:15.297Z,-3.32
2023-02-08T05:27:12.100Z,-4.39
2023-02-08T05:28:08.893Z,-3.82
2023-02-08T05:29:05.720Z,-3.93
2023-02-08T05:30:02.635Z,-5.29
2023-02-08T05:30:59.438Z,-4.38
2023-02-08T05:31:56.276Z,-3.72
2023-02-08T05:32:53.104Z,-3.93
2023-02-08T05:33:51.044Z,-4.61
2023-02-08T05:34:47.973Z,-3.30
2023-02-08T05:35:46.020Z,-3.69
2023-02-08T05:36:42.895Z,-4.51
2023-02-08T05:37:39.774Z,-4.59
2023-02-08T05:38:36.586Z,-3.80
2023-02-08T05:39:33.653Z,-3.98
2023-02-08T05:40:30.551Z,-4.07
2023-02-08T05:41:27.432Z,-3.61
2023-02-08T05:42:24.202Z,-3.66
2023-02-08T05:43:20.909Z,-3.86
2023-02-08T05:44:17.785Z,-4.61
2023-02-08T05:45:14.759Z,-4.02
2023-02-08T05:46:11.746Z,-3.94
2023-02-08T05:47:08.543Z,-5.11
2023-02-08T05:48:05.435Z,-4.15
2023-02-08T05:49:02.203Z,-4.21
2023-02-08T05:49:59.046Z,-4.45
2023-02-08T05:50:55.971Z,-4.01
2023-02-08T05:51:53.138Z,-3.99
2023-02-08T05:52:49.845Z,-4.11
2023-02-08T05:53:46.845Z,-4.00
2023-02-08T05:54:43.635Z,-4.54
2023-02-08T05:55:40.447Z,-4.15
2023-02-08T05:56:37.265Z,-3.64
2023-02-08T05:57:35.741Z,-4.43
2023-02-08T05:58:34.490Z,-3.81
2023-02-08T05:59:31.299Z,-3.75
2023-02-08T06:00:28.213Z,-4.17
2023-02-08T06:01:25.008Z,-3.54
2023-02-08T06:02:22.000Z,-4.42
2023-02-08T06:03:18.919Z,-3.50
2023-02-08T06:04:15.775Z,-3.58
2023-02-08T06:05:12.622Z,-3.87
2023-02-08T06:06:11.333Z,-3.52
2023-02-08T06:07:08.186Z,-3.60
2023-02-08T06:08:05.809Z,-4.01
2023-02-08T06:09:03.028Z,-3.82
2023-02-08T06:09:59.973Z,-3.82
2023-02-08T06:10:56.774Z,-4.86
2023-02-08T06:11:53.587Z,-3.46
2023-02-08T06:12:50.324Z,-2.65
2023-02-08T06:13:48.233Z,-2.35
2023-02-08T06:14:44.964Z,-1.95
2023-02-08T06:15:41.762Z,-2.27
2023-02-08T06:16:38.631Z,-2.68
2023-02-08T06:17:35.385Z,-4.90
2023-02-08T06:18:32.228Z,-2.97
2023-02-08T06:19:29.042Z,-3.14
2023-02-08T06:20:26.434Z,-3.53
2023-02-08T06:21:24.592Z,-3.33
2023-02-08T06:22:21.489Z,-3.40
2023-02-08T06:23:18.307Z,-3.90
2023-02-08T06:24:16.670Z,-3.70
2023-02-08T06:25:13.459Z,-3.88
2023-02-08T06:26:11.587Z,-4.78
2023-02-08T06:27:08.692Z,-4.07
2023-02-08T06:28:06.897Z,-3.25
2023-02-08T06:29:03.948Z,-5.35
2023-02-08T06:30:00.798Z,-3.97
2023-02-08T06:30:57.994Z,-3.35
2023-02-08T06:31:54.998Z,-3.35
2023-02-08T06:32:52.413Z,-3.32
2023-02-08T06:33:49.155Z,-3.33
2023-02-08T06:34:45.894Z,-3.10
2023-02-08T06:35:52.245Z,-3.28
2023-02-08T06:36:49.056Z,-3.27
2023-02-08T06:37:46.172Z,-3.90
2023-02-08T06:38:43.176Z,-3.87
2023-02-08T06:39:39.935Z,-3.41
2023-02-08T06:40:36.659Z,-3.02
2023-02-08T06:41:33.729Z,-4.07
2023-02-08T06:42:30.588Z,-3.25
2023-02-08T06:43:27.445Z,-2.80
2023-02-08T06:44:24.388Z,-2.61
2023-02-08T06:45:21.418Z,-2.08
2023-02-08T06:46:18.222Z,-2.77
2023-02-08T06:47:14.966Z,-3.64
2023-02-08T06:48:11.957Z,-2.91
2023-02-08T06:49:08.812Z,-3.53
2023-02-08T06:50:06.583Z,-3.06
2023-02-08T06:51:03.534Z,-3.41
2023-02-08T06:52:00.301Z,-2.47
2023-02-08T06:52:57.151Z,-3.36
2023-02-08T06:53:54.024Z,-1.78
2023-02-08T06:54:50.856Z,-1.46
2023-02-08T06:55:51.649Z,-2.32
2023-02-08T06:56:48.704Z,-2.61
2023-02-08T06:57:45.706Z,-1.88
2023-02-08T06:58:42.507Z,-2.44
2023-02-08T06:59:40.335Z,-2.91
2023-02-08T07:00:39.349Z,-1.58
2023-02-08T07:01:36.439Z,-2.16
2023-02-08T07:02:33.793Z,-1.77
2023-02-08T07:03:30.533Z,-1.82
2023-02-08T07:04:27.312Z,-1.58
2023-02-08T07:05:24.274Z,-1.51
2023-02-08T07:06:21.488Z,-1.45
2023-02-08T07:07:18.726Z,-2.20
2023-02-08T07:08:15.761Z,-2.39
2023-02-08T07:09:12.532Z,-2.87
2023-02-08T07:10:09.606Z,-2.24
2023-02-08T07:11:08.843Z,-2.40
2023-02-08T07:12:06.099Z,-2.24
2023-02-08T07:13:03.178Z,-2.02
2023-02-08T07:13:59.990Z,-1.58
2023-02-08T07:14:56.774Z,-3.35
2023-02-08T07:15:53.544Z,-1.75
2023-02-08T07:16:50.437Z,-2.07
2023-02-08T07:17:47.221Z,-1.93
2023-02-08T07:18:44.903Z,-1.74
2023-02-08T07:19:41.783Z,-2.18
2023-02-08T07:20:38.826Z,-2.74
2023-02-08T07:21:36.025Z,-2.69
2023-02-08T07:22:32.897Z,-2.18
2023-02-08T07:23:29.738Z,-1.96
2023-02-08T07:24:26.585Z,-1.49
2023-02-08T07:25:23.401Z,-1.68
2023-02-08T07:26:20.143Z,-1.90
2023-02-08T07:27:16.981Z,-1.80
2023-02-08T07:28:16.059Z,-1.89
2023-02-08T07:29:13.086Z,-1.32
2023-02-08T07:30:10.624Z,-0.97
2023-02-08T07:31:10.148Z,-2.84
2023-02-08T07:32:08.711Z,-2.35
2023-02-08T07:33:05.715Z,-2.06
2023-02-08T07:34:02.657Z,-2.23
2023-02-08T07:34:59.495Z,-1.67
2023-02-08T07:35:56.320Z,-2.44
2023-02-08T07:36:53.351Z,-1.59
2023-02-08T07:37:50.154Z,-2.72
2023-02-08T07:38:46.903Z,-1.84
2023-02-08T07:39:43.818Z,-4.55
2023-02-08T07:40:41.051Z,-1.58
2023-02-08T07:41:38.442Z,-1.37
2023-02-08T07:42:35.244Z,-2.20
2023-02-08T07:43:34.975Z,-1.84
2023-02-08T07:44:31.804Z,-2.09
2023-02-08T07:45:28.625Z,-3.09
2023-02-08T07:46:28.483Z,-2.99
2023-02-08T07:47:25.261Z,-3.22
2023-02-08T07:48:22.053Z,-2.89
2023-02-08T07:49:19.118Z,-2.18
2023-02-08T07:50:16.926Z,-1.36
2023-02-08T07:51:13.853Z,-1.34
2023-02-08T07:52:10.703Z,-1.22
2023-02-08T07:53:07.547Z,-2.27
2023-02-08T07:54:04.566Z,-2.01
2023-02-08T07:55:01.453Z,-1.60
2023-02-08T07:56:01.455Z,-1.93
2023-02-08T07:56:58.345Z,-1.42
2023-02-08T07:57:57.039Z,-1.56
2023-02-08T07:58:53.819Z,-1.59
2023-02-08T07:59:52.031Z,-1.49
2023-02-08T08:00:51.046Z,-2.41
2023-02-08T08:01:47.966Z,-1.07
2023-02-08T08:02:44.998Z,-0.55
2023-02-08T08:03:41.895Z,-0.26
2023-02-08T08:04:38.728Z,-0.23
2023-02-08T08:05:35.595Z,-0.45
2023-02-08T08:06:32.488Z,-0.26
2023-02-08T08:07:29.288Z,-0.35
2023-02-08T08:08:26.109Z,0.20
2023-02-08T08:09:24.317Z,-0.27
2023-02-08T08:10:21.108Z,-2.03
2023-02-08T08:11:19.664Z,-1.08
2023-02-08T08:12:16.472Z,-1.18
2023-02-08T08:13:14.328Z,-3.46
2023-02-08T08:14:11.085Z,-2.21
2023-02-08T08:15:08.148Z,-1.64
2023-02-08T08:16:05.299Z,-3.21
2023-02-08T08:17:04.539Z,-1.00
2023-02-08T08:18:01.357Z,-1.02
2023-02-08T08:18:58.176Z,-0.69
2023-02-08T08:19:54.977Z,0.03
2023-02-08T08:20:51.732Z,-1.09
2023-02-08T08:21:48.653Z,-1.49
2023-02-08T08:22:46.635Z,-0.87
2023-02-08T08:23:44.130Z,-1.61
2023-02-08T08:24:40.963Z,-1.20
2023-02-08T08:25:38.344Z,-1.23
2023-02-08T08:26:35.344Z,-1.72
2023-02-08T08:27:32.336Z,-1.86
2023-02-08T08:28:29.162Z,-1.59
2023-02-08T08:29:25.974Z,-1.46
2023-02-08T08:30:22.903Z,-2.29
2023-02-08T08:31:21.968Z,-0.61
2023-02-08T08:32:18.829Z,-0.72
2023-02-08T08:33:15.562Z,-0.29
2023-02-08T08:34:12.488Z,-0.79
2023-02-08T08:35:10.539Z,-0.54
2023-02-08T08:36:27.446Z,-0.66
2023-02-08T08:37:24.220Z,-2.26
2023-02-08T08:38:21.129Z,-1.33
2023-02-08T08:39:18.031Z,-0.35
2023-02-08T08:40:14.830Z,-0.57
2023-02-08T08:41:18.226Z,-0.79
2023-02-08T08:42:15.145Z,-0.17
2023-02-08T08:43:11.982Z,-0.39
2023-02-08T08:44:08.751Z,0.11
2023-02-08T08:45:07.092Z,-0.41
2023-02-08T08:46:06.839Z,-1.98
2023-02-08T08:47:03.769Z,-1.46
2023-02-08T08:48:01.795Z,0.03
2023-02-08T08:48:58.702Z,0.18
2023-02-08T08:49:55.449Z,-0.74
2023-02-08T08:50:54.838Z,-1.42
2023-02-08T08:51:52.234Z,-0.78
2023-02-08T08:52:49.033Z,-0.51
2023-02-08T08:53:45.834Z,-0.62
2023-02-08T08:54:42.729Z,-1.34
2023-02-08T08:55:39.550Z,-0.84
2023-02-08T08:56:36.489Z,-0.53
2023-02-08T08:57:33.277Z,-0.15
2023-02-08T08:58:30.120Z,-0.71
2023-02-08T08:59:27.197Z,-0.14
2023-02-08T09:00:24.152Z,0.72
2023-02-08T09:01:21.106Z,0.64
2023-02-08T09:02:18.121Z,-0.49
2023-02-08T09:03:15.013Z,-0.53
2023-02-08T09:04:14.521Z,-0.60
2023-02-08T09:05:11.366Z,0.09
2023-02-08T09:06:08.157Z,-0.68
2023-02-08T09:07:04.997Z,-1.11
2023-02-08T09:08:03.578Z,-2.44
2023-02-08T09:09:01.062Z,-0.95
2023-02-08T09:09:57.873Z,-0.98
2023-02-08T09:10:54.627Z,-0.95
2023-02-08T09:11:51.499Z,-1.12
2023-02-08T09:12:53.183Z,-1.49
2023-02-08T09:13:52.987Z,-0.99
2023-02-08T09:14:49.791Z,-1.12
2023-02-08T09:15:48.225Z,-0.31
2023-02-08T09:16:48.152Z,0.48
2023-02-08T09:17:44.958Z,0.79
2023-02-08T09:18:41.937Z,0.66
2023-02-08T09:19:39.165Z,0.73
2023-02-08T09:20:38.554Z,0.79
2023-02-08T09:21:36.568Z,0.57
2023-02-08T09:22:33.554Z,-1.06
2023-02-08T09:23:30.368Z,0.21
2023-02-08T09:24:27.237Z,0.21
2023-02-08T09:25:24.065Z,0.69
2023-02-08T09:26:21.530Z,0.20
2023-02-08T09:27:19.145Z,0.91
2023-02-08T09:28:16.091Z,1.13
2023-02-08T09:29:12.878Z,1.26
2023-02-08T09:30:28.661Z,0.91
2023-02-08T09:31:31.180Z,0.47
2023-02-08T09:32:34.042Z,-0.55
2023-02-08T09:33:30.860Z,-0.56
2023-02-08T09:34:28.147Z,0.93
2023-02-08T09:35:24.951Z,0.98
2023-02-08T09:36:24.552Z,1.40
2023-02-08T09:37:24.108Z,0.77
2023-02-08T09:38:20.939Z,1.54
2023-02-08T09:39:21.768Z,-0.01
2023-02-08T09:40:32.022Z,0.23
2023-02-08T09:41:50.249Z,1.32
2023-02-08T09:42:59.625Z,0.34
2023-02-08T09:44:15.062Z,1.57
2023-02-08T09:45:36.876Z,0.39
2023-02-08T09:46:41.052Z,0.94
2023-02-08T09:47:45.667Z,1.64
2023-02-08T09:48:43.016Z,2.11
2023-02-08T09:49:51.615Z,0.87
2023-02-08T09:50:51.140Z,1.77
2023-02-08T09:51:59.048Z,1.15
2023-02-08T09:53:21.303Z,1.30
2023-02-08T09:54:23.941Z,1.67
2023-02-08T09:55:52.694Z,2.10
2023-02-08T09:56:52.418Z,1.92
2023-02-08T09:57:53.707Z,1.77
2023-02-08T09:58:53.779Z,2.76
2023-02-08T10:00:02.175Z,2.58
2023-02-08T10:00:59.596Z,2.40
2023-02-08T10:02:23.540Z,1.60
2023-02-08T10:03:25.674Z,1.59
2023-02-08T10:04:34.144Z,1.85
2023-02-08T10:05:32.026Z,1.92
2023-02-08T10:06:31.041Z,1.49
2023-02-08T10:07:31.084Z,1.00
2023-02-08T10:08:35.196Z,0.80
2023-02-08T10:09:34.904Z,2.09
2023-02-08T10:10:56.702Z,1.76
2023-02-08T10:12:15.858Z,0.98
2023-02-08T10:13:40.884Z,2.29
2023-02-08T10:15:00.107Z,2.46
2023-02-08T10:16:16.829Z,1.54
2023-02-08T10:17:51.106Z,2.32
2023-02-08T10:19:02.944Z,1.99
2023-02-08T10:20:24.926Z,0.84
2023-02-08T10:21:55.699Z,2.30
2023-02-08T10:23:08.225Z,1.90
2023-02-08T10:24:25.943Z,1.72
2023-02-08T10:25:42.948Z,0.88
2023-02-08T10:27:03.144Z,2.05
2023-02-08T10:28:37.735Z,2.12
2023-02-08T10:29:52.643Z,2.43
2023-02-08T10:31:08.695Z,2.29
2023-02-08T10:32:27.093Z,2.06
2023-02-08T10:33:34.830Z,2.25
2023-02-08T10:34:49.716Z,2.06
2023-02-08T10:35:52.988Z,0.82
2023-02-08T10:36:51.567Z,0.92
2023-02-08T10:37:51.763Z,1.42
2023-02-08T10:38:54.203Z,1.22
2023-02-08T10:39:56.919Z,0.74
2023-02-08T10:41:00.201Z,0.83
2023-02-08T10:41:57.281Z,1.07
2023-02-08T10:43:24.348Z,1.39
2023-02-08T10:44:48.347Z,1.15
2023-02-08T10:46:26.960Z,0.43
2023-02-08T10:48:08.972Z,1.47
2023-02-08T10:49:54.869Z,-0.15
2023-02-08T10:50:51.629Z,1.09
2023-02-08T10:51:57.293Z,0.82
2023-02-08T10:54:05.601Z,0.90
2023-02-08T10:56:37.376Z,0.74
2023-02-08T10:57:36.186Z,1.04
2023-02-08T10:58:34.623Z,1.27
2023-02-08T10:59:37.174Z,1.03
2023-02-08T11:00:39.502Z,0.42
2023-02-08T11:01:39.566Z,1.01
2023-02-08T11:02:42.652Z,1.00
2023-02-08T11:03:39.878Z,0.11
2023-02-08T11:05:01.877Z,0.23
2023-02-08T11:05:58.813Z,0.52
2023-02-08T11:06:56.780Z,0.68
2023-02-08T11:08:16.882Z,-2.04
2023-02-08T11:09:26.157Z,-0.01
2023-02-08T11:10:25.481Z,-0.30
2023-02-08T11:11:27.953Z,0.55
2023-02-08T11:12:26.889Z,-0.21
2023-02-08T11:13:29.617Z,0.48
2023-02-08T11:14:46.109Z,0.68
2023-02-08T11:16:01.700Z,0.50
2023-02-08T11:17:01.113Z,0.66
2023-02-08T11:18:07.189Z,-0.18
2023-02-08T11:19:10.451Z,0.43
2023-02-08T11:20:21.915Z,0.15
2023-02-08T11:21:28.784Z,-0.37
2023-02-08T11:22:31.499Z,0.00
2023-02-08T11:23:40.492Z,-0.29
2023-02-08T11:24:45.012Z,0.36
2023-02-08T11:25:44.508Z,0.07
2023-02-08T11:26:51.312Z,0.53
2023-02-08T11:27:51.331Z,-0.22
2023-02-08T11:29:12.454Z,0.23
2023-02-08T11:30:15.876Z,0.04
2023-02-08T11:31:23.863Z,-0.12
2023-02-08T11:32:23.438Z,-0.42
2023-02-08T11:33:23.461Z,-0.54
2023-02-08T11:34:28.774Z,0.51
2023-02-08T11:35:37.609Z,-0.47
2023-02-08T11:36:41.866Z,0.82
2023-02-08T11:37:38.934Z,-0.52
2023-02-08T11:38:50.754Z,-0.88
2023-02-08T11:39:57.069Z,0.39
2023-02-08T11:41:00.810Z,1.16
2023-02-08T11:42:04.450Z,1.48
2023-02-08T11:43:04.967Z,0.49
2023-02-08T11:44:09.778Z,0.82
2023-02-08T11:45:10.731Z,0.55
2023-02-08T11:46:13.070Z,0.05
2023-02-08T11:47:21.625Z,0.14
2023-02-08T11:48:24.735Z,0.33
2023-02-08T11:49:37.042Z,0.59
2023-02-08T11:50:38.258Z,0.35
2023-02-08T11:51:37.862Z,-0.06
2023-02-08T11:52:36.680Z,0.38
2023-02-08T11:53:46.616Z,0.14
2023-02-08T11:54:43.487Z,0.73
2023-02-08T11:55:40.861Z,1.01
2023-02-08T11:56:37.953Z,0.24
2023-02-08T11:57:34.743Z,0.74
2023-02-08T11:58:32.126Z,1.08
2023-02-08T11:59:30.057Z,1.32
2023-02-08T12:00:30.498Z,0.41
2023-02-08T12:01:36.331Z,1.49
2023-02-08T12:02:39.544Z,1.55
2023-02-08T12:03:41.670Z,1.66
2023-02-08T12:04:38.542Z,0.61
2023-02-08T12:06:07.439Z,0.90
2023-02-08T12:07:09.904Z,0.37
2023-02-08T12:08:35.992Z,0.79
2023-02-08T12:10:05.461Z,0.08
2023-02-08T12:11:22.899Z,0.32
2023-02-08T12:12:40.821Z,0.69
2023-02-08T12:14:22.543Z,0.74
2023-02-08T12:15:57.749Z,-0.15
2023-02-08T12:17:29.422Z,-0.55
2023-02-08T12:18:47.825Z,1.19
2023-02-08T12:20:03.139Z,1.03
2023-02-08T12:21:25.470Z,1.06
2023-02-08T12:22:30.713Z,0.84
2023-02-08T12:23:27.465Z,0.86
2023-02-08T12:24:38.925Z,0.85
2023-02-08T12:25:46.753Z,0.75
2023-02-08T12:26:49.546Z,0.56
2023-02-08T12:28:02.472Z,1.01
2023-02-08T12:29:12.796Z,0.34
2023-02-08T12:30:12.456Z,0.59
2023-02-08T12:31:39.771Z,0.63
2023-02-08T12:32:56.732Z,0.32
2023-02-08T12:34:05.488Z,0.44
2023-02-08T12:35:02.276Z,0.45
2023-02-08T12:36:13.960Z,0.18
2023-02-08T12:37:47.819Z,0.57
2023-02-08T12:39:20.827Z,0.34
2023-02-08T12:40:52.910Z,0.11
2023-02-08T12:42:04.582Z,0.67
2023-02-08T12:43:04.235Z,0.85
2023-02-08T12:44:33.175Z,0.61
2023-02-08T12:45:35.910Z,0.85
2023-02-08T12:46:50.405Z,0.76
2023-02-08T12:48:31.314Z,0.35
2023-02-08T12:49:28.031Z,1.30
2023-02-08T12:50:45.892Z,1.36
2023-02-08T12:51:52.660Z,1.26
2023-02-08T12:52:58.004Z,1.46
2023-02-08T12:54:12.914Z,-1.10
2023-02-08T12:55:28.363Z,0.99
2023-02-08T12:56:50.937Z,1.51
2023-02-08T12:58:41.748Z,1.63
2023-02-08T12:59:42.991Z,0.75
2023-02-08T13:00:43.217Z,0.86
2023-02-08T13:01:52.512Z,0.54
2023-02-08T13:03:07.008Z,0.60
2023-02-08T13:04:15.699Z,1.02
2023-02-08T13:05:21.887Z,1.33
2023-02-08T13:06:29.733Z,1.59
2023-02-08T13:07:33.684Z,0.87
2023-02-08T13:08:40.799Z,1.65
2023-02-08T13:09:50.330Z,0.72
2023-02-08T13:10:55.508Z,0.62
2023-02-08T13:11:58.266Z,1.63
2023-02-08T13:13:16.107Z,1.01
2023-02-08T13:14:40.145Z,0.79
2023-02-08T13:15:46.585Z,0.01
2023-02-08T13:16:52.320Z,0.12
2023-02-08T13:17:55.594Z,0.68
2023-02-08T13:19:16.293Z,0.71
2023-02-08T13:20:26.419Z,0.27
2023-02-08T13:21:30.696Z,0.86
2023-02-08T13:22:35.005Z,0.76
2023-02-08T13:23:51.715Z,0.70
2023-02-08T13:25:06.308Z,1.26
2023-02-08T13:26:20.536Z,1.59
2023-02-08T13:27:22.381Z,0.40
2023-02-08T13:28:24.090Z,0.63
2023-02-08T13:29:26.104Z,1.37
2023-02-08T13:30:24.937Z,0.93
2023-02-08T13:31:45.643Z,0.96
2023-02-08T13:32:53.033Z,0.75
2023-02-08T13:34:02.346Z,0.33
2023-02-08T13:35:15.018Z,-0.50